Terminal Aerodrome Forecast
Issued by NWS

Current Version | Previous Version | Text Only | Print | Product List | Glossary Off
Versions: 1 2 3 4 5 6 7 8 9 10 11 12 13 14 15 16 17 18 19

000
FTUS44 KSJT 261740
TAFSOA
TAF
KSOA 261740Z 2618/2718 15011KT P6SM VCSH SCT030 BKN060
     FM270100 15006KT P6SM SCT060 BKN250
     FM270500 15003KT P6SM SCT050 BKN120 PROB30 2705/2711 SHRA
      BKN035
     FM271100 16003KT P6SM SCT020 BKN250
     FM271500 16005KT P6SM SCT030 BKN250=

USA.gov is the U.S. government's official web portal to all federal, state and local government web resources and services.